Manson, Iowa
Current Conditions -  °F | °C
As of 9:55 AM on Friday 19 Dec 2014 (Local Time) from KFOD Reporting Station
Overcast Overcast  
Wind Chill: 22°   Ceiling: 600
Heat Index: 28°   Visibility: 4mi
Dew Point: 27°   Wind: 6mph
Humidity: 93%   Direction: 160°SSE
Pressure: 30.24"   Gusts: NA
Location:  42.53°N, 94.53°W
Report Text: KFOD 191555Z AUTO 16005KT 4SM OVC006 M02/M03 A3024 RMK AO1
Loading
Personal Weather Stations






























Interactive Weather Map New forecast layout! Learn more

10-Day Weather Forecast

Advertisements
Track Severe Weather on mobile